< < Back
Terminal Aerodrome Forecast


Current Version              Previous Versions:   1  2  3  4  5  6  7  8  9  

Terminal Aerodrome Forecast

059
FTUS42 KGSP 231122
TAFGSP
TAF
KGSP 231122Z 2312/2412 30003KT P6SM SKC
     FM231800 29007KT P6SM SKC
     FM240000 00000KT P6SM FEW250=



Latest METAR

242
SAUS70 KWBC 240900 RRA
MTRGSP
METAR KGSP 240853Z AUTO 02004KT 10SM CLR 08/06 A3002 RMK AO2 SLP160
T00780061 58003


USA.gov is the U.S. government's official web portal to all federal, state and local government web resources and services.